sensor_id;sensor_type;location;lat;lon;timestamp;P1;durP1;ratioP1;P2;durP2;ratioP2
70970;SDS011;58632;51.718;19.446;2022-08-01T00:02:05;2.75;;;2.40;;
70970;SDS011;58632;51.718;19.446;2022-08-01T00:04:32;4.75;;;2.25;;
70970;SDS011;58632;51.718;19.446;2022-08-01T00:06:59;2.92;;;2.42;;
70970;SDS011;58632;51.718;19.446;2022-08-01T00:09:26;4.72;;;2.75;;
70970;SDS011;58632;51.718;19.446;2022-08-01T00:11:54;3.08;;;2.35;;
70970;SDS011;58632;51.718;19.446;2022-08-01T00:14:21;3.92;;;2.58;;
70970;SDS011;58632;51.718;19.446;2022-08-01T00:16:49;3.90;;;2.75;;
70970;SDS011;58632;51.718;19.446;2022-08-01T00:19:16;3.72;;;2.50;;
70970;SDS011;58632;51.718;19.446;2022-08-01T00:21:43;3.30;;;2.60;;
70970;SDS011;58632;51.718;19.446;2022-08-01T00:24:11;2.90;;;2.40;;
70970;SDS011;58632;51.718;19.446;2022-08-01T00:26:38;4.20;;;3.15;;
70970;SDS011;58632;51.718;19.446;2022-08-01T00:29:06;3.22;;;2.67;;
70970;SDS011;58632;51.718;19.446;2022-08-01T00:31:33;3.87;;;3.00;;
70970;SDS011;58632;51.718;19.446;2022-08-01T00:34:00;3.08;;;2.45;;
70970;SDS011;58632;51.718;19.446;2022-08-01T00:36:27;2.62;;;2.30;;
70970;SDS011;58632;51.718;19.446;2022-08-01T00:38:55;2.65;;;2.25;;
70970;SDS011;58632;51.718;19.446;2022-08-01T00:41:22;2.47;;;2.27;;
70970;SDS011;58632;51.718;19.446;2022-08-01T00:43:49;3.50;;;2.47;;
70970;SDS011;58632;51.718;19.446;2022-08-01T00:46:16;2.30;;;2.10;;
70970;SDS011;58632;51.718;19.446;2022-08-01T00:48:44;4.62;;;2.10;;
70970;SDS011;58632;51.718;19.446;2022-08-01T00:51:11;2.50;;;2.08;;
70970;SDS011;58632;51.718;19.446;2022-08-01T00:53:39;2.65;;;2.05;;
70970;SDS011;58632;51.718;19.446;2022-08-01T00:56:07;3.08;;;2.40;;
70970;SDS011;58632;51.718;19.446;2022-08-01T00:58:36;3.35;;;2.72;;
70970;SDS011;58632;51.718;19.446;2022-08-01T01:01:04;3.22;;;2.40;;
70970;SDS011;58632;51.718;19.446;2022-08-01T01:03:33;2.35;;;2.10;;
70970;SDS011;58632;51.718;19.446;2022-08-01T01:11:49;3.70;;;2.17;;
70970;SDS011;58632;51.718;19.446;2022-08-01T01:15:07;2.87;;;2.05;;
70970;SDS011;58632;51.718;19.446;2022-08-01T01:17:46;3.10;;;1.83;;
70970;SDS011;58632;51.718;19.446;2022-08-01T01:20:21;3.00;;;2.12;;
70970;SDS011;58632;51.718;19.446;2022-08-01T01:29:09;2.25;;;1.95;;
70970;SDS011;58632;51.718;19.446;2022-08-01T01:31:43;2.20;;;2.00;;
70970;SDS011;58632;51.718;19.446;2022-08-01T01:34:20;2.10;;;1.90;;
70970;SDS011;58632;51.718;19.446;2022-08-01T01:36:52;2.10;;;1.85;;
70970;SDS011;58632;51.718;19.446;2022-08-01T01:39:21;2.60;;;2.02;;
70970;SDS011;58632;51.718;19.446;2022-08-01T01:41:53;2.77;;;2.00;;
70970;SDS011;58632;51.718;19.446;2022-08-01T01:44:24;3.50;;;2.08;;
70970;SDS011;58632;51.718;19.446;2022-08-01T01:46:54;3.17;;;2.35;;
70970;SDS011;58632;51.718;19.446;2022-08-01T01:49:25;2.50;;;1.90;;
70970;SDS011;58632;51.718;19.446;2022-08-01T01:51:56;3.45;;;2.15;;
70970;SDS011;58632;51.718;19.446;2022-08-01T01:54:33;1.90;;;1.52;;
70970;SDS011;58632;51.718;19.446;2022-08-01T01:57:05;2.35;;;1.82;;
70970;SDS011;58632;51.718;19.446;2022-08-01T01:59:36;1.98;;;1.77;;
70970;SDS011;58632;51.718;19.446;2022-08-01T02:02:06;2.27;;;1.95;;
70970;SDS011;58632;51.718;19.446;2022-08-01T02:04:37;2.60;;;1.72;;
70970;SDS011;58632;51.718;19.446;2022-08-01T02:07:12;1.95;;;1.70;;
70970;SDS011;58632;51.718;19.446;2022-08-01T02:09:43;1.50;;;1.40;;
70970;SDS011;58632;51.718;19.446;2022-08-01T02:12:14;3.58;;;1.75;;
70970;SDS011;58632;51.718;19.446;2022-08-01T02:14:45;1.57;;;1.45;;
70970;SDS011;58632;51.718;19.446;2022-08-01T02:17:17;1.50;;;1.40;;
70970;SDS011;58632;51.718;19.446;2022-08-01T02:19:47;1.40;;;1.30;;
70970;SDS011;58632;51.718;19.446;2022-08-01T02:22:19;1.65;;;1.50;;
70970;SDS011;58632;51.718;19.446;2022-08-01T02:24:59;1.65;;;1.50;;
70970;SDS011;58632;51.718;19.446;2022-08-01T02:27:37;1.67;;;1.52;;
70970;SDS011;58632;51.718;19.446;2022-08-01T02:30:08;1.50;;;1.40;;
70970;SDS011;58632;51.718;19.446;2022-08-01T02:32:44;1.77;;;1.50;;
70970;SDS011;58632;51.718;19.446;2022-08-01T02:35:26;1.75;;;1.57;;
70970;SDS011;58632;51.718;19.446;2022-08-01T02:37:55;1.98;;;1.65;;
70970;SDS011;58632;51.718;19.446;2022-08-01T02:40:27;2.20;;;1.40;;
70970;SDS011;58632;51.718;19.446;2022-08-01T02:42:59;2.65;;;1.70;;
70970;SDS011;58632;51.718;19.446;2022-08-01T02:45:29;2.10;;;1.62;;
70970;SDS011;58632;51.718;19.446;2022-08-01T02:48:01;1.87;;;1.57;;
70970;SDS011;58632;51.718;19.446;2022-08-01T02:50:32;1.55;;;1.45;;
70970;SDS011;58632;51.718;19.446;2022-08-01T02:53:02;1.70;;;1.60;;
70970;SDS011;58632;51.718;19.446;2022-08-01T02:55:33;1.60;;;1.50;;
70970;SDS011;58632;51.718;19.446;2022-08-01T02:58:02;2.02;;;1.70;;
70970;SDS011;58632;51.718;19.446;2022-08-01T03:00:31;1.80;;;1.70;;
70970;SDS011;58632;51.718;19.446;2022-08-01T03:03:00;2.02;;;1.82;;
70970;SDS011;58632;51.718;19.446;2022-08-01T03:05:30;2.17;;;1.60;;
70970;SDS011;58632;51.718;19.446;2022-08-01T03:08:00;2.02;;;1.82;;
70970;SDS011;58632;51.718;19.446;2022-08-01T03:10:29;2.90;;;1.87;;
70970;SDS011;58632;51.718;19.446;2022-08-01T03:13:00;2.33;;;1.95;;
70970;SDS011;58632;51.718;19.446;2022-08-01T03:15:32;2.70;;;1.90;;
70970;SDS011;58632;51.718;19.446;2022-08-01T03:18:05;2.58;;;2.08;;
70970;SDS011;58632;51.718;19.446;2022-08-01T03:20:36;2.52;;;2.17;;
70970;SDS011;58632;51.718;19.446;2022-08-01T03:23:05;1.98;;;1.77;;
70970;SDS011;58632;51.718;19.446;2022-08-01T03:25:38;2.30;;;2.10;;
70970;SDS011;58632;51.718;19.446;2022-08-01T03:28:08;2.20;;;1.90;;
70970;SDS011;58632;51.718;19.446;2022-08-01T03:30:39;2.95;;;2.20;;
70970;SDS011;58632;51.718;19.446;2022-08-01T03:33:09;2.42;;;2.12;;
70970;SDS011;58632;51.718;19.446;2022-08-01T03:35:39;2.60;;;2.27;;
70970;SDS011;58632;51.718;19.446;2022-08-01T03:38:13;2.60;;;2.10;;
70970;SDS011;58632;51.718;19.446;2022-08-01T03:40:52;3.20;;;2.30;;
70970;SDS011;58632;51.718;19.446;2022-08-01T03:46:09;2.60;;;2.00;;
70970;SDS011;58632;51.718;19.446;2022-08-01T03:48:41;3.27;;;2.15;;
70970;SDS011;58632;51.718;19.446;2022-08-01T03:51:13;5.00;;;2.80;;
70970;SDS011;58632;51.718;19.446;2022-08-01T03:53:44;5.22;;;2.62;;
70970;SDS011;58632;51.718;19.446;2022-08-01T03:56:16;5.47;;;3.33;;
70970;SDS011;58632;51.718;19.446;2022-08-01T03:58:46;5.92;;;3.17;;
70970;SDS011;58632;51.718;19.446;2022-08-01T04:01:15;5.08;;;3.00;;
70970;SDS011;58632;51.718;19.446;2022-08-01T04:03:43;5.53;;;2.75;;
70970;SDS011;58632;51.718;19.446;2022-08-01T04:06:12;5.20;;;2.80;;
70970;SDS011;58632;51.718;19.446;2022-08-01T04:08:40;3.95;;;2.65;;
70970;SDS011;58632;51.718;19.446;2022-08-01T04:11:08;5.30;;;3.25;;
70970;SDS011;58632;51.718;19.446;2022-08-01T04:13:36;4.70;;;2.90;;
70970;SDS011;58632;51.718;19.446;2022-08-01T04:16:04;4.97;;;3.05;;
70970;SDS011;58632;51.718;19.446;2022-08-01T04:18:32;3.30;;;2.67;;
70970;SDS011;58632;51.718;19.446;2022-08-01T04:20:59;2.92;;;2.35;;
70970;SDS011;58632;51.718;19.446;2022-08-01T04:23:27;3.08;;;2.60;;
70970;SDS011;58632;51.718;19.446;2022-08-01T04:25:58;5.40;;;2.62;;
70970;SDS011;58632;51.718;19.446;2022-08-01T04:28:30;3.60;;;2.70;;
70970;SDS011;58632;51.718;19.446;2022-08-01T04:31:02;3.40;;;2.98;;
70970;SDS011;58632;51.718;19.446;2022-08-01T04:33:35;4.00;;;3.08;;
70970;SDS011;58632;51.718;19.446;2022-08-01T04:36:08;4.62;;;3.08;;
70970;SDS011;58632;51.718;19.446;2022-08-01T04:38:42;3.83;;;2.92;;
70970;SDS011;58632;51.718;19.446;2022-08-01T04:41:12;3.47;;;2.95;;
70970;SDS011;58632;51.718;19.446;2022-08-01T04:43:42;4.37;;;2.77;;
70970;SDS011;58632;51.718;19.446;2022-08-01T04:46:09;4.12;;;3.17;;
70970;SDS011;58632;51.718;19.446;2022-08-01T04:48:39;3.95;;;3.25;;
70970;SDS011;58632;51.718;19.446;2022-08-01T04:51:11;4.25;;;3.30;;
70970;SDS011;58632;51.718;19.446;2022-08-01T04:53:46;4.17;;;3.10;;
70970;SDS011;58632;51.718;19.446;2022-08-01T04:56:13;3.30;;;2.80;;
70970;SDS011;58632;51.718;19.446;2022-08-01T04:58:41;6.83;;;3.00;;
70970;SDS011;58632;51.718;19.446;2022-08-01T05:01:10;5.10;;;3.00;;
70970;SDS011;58632;51.718;19.446;2022-08-01T05:03:38;4.53;;;3.00;;
70970;SDS011;58632;51.718;19.446;2022-08-01T05:06:06;4.75;;;3.83;;
70970;SDS011;58632;51.718;19.446;2022-08-01T05:08:33;7.75;;;5.90;;
70970;SDS011;58632;51.718;19.446;2022-08-01T05:11:02;7.28;;;6.33;;
70970;SDS011;58632;51.718;19.446;2022-08-01T05:13:30;12.28;;;4.78;;
70970;SDS011;58632;51.718;19.446;2022-08-01T05:15:57;6.87;;;4.08;;
70970;SDS011;58632;51.718;19.446;2022-08-01T05:18:24;4.80;;;2.90;;
70970;SDS011;58632;51.718;19.446;2022-08-01T05:20:53;3.70;;;2.85;;
70970;SDS011;58632;51.718;19.446;2022-08-01T05:23:20;3.87;;;2.50;;
70970;SDS011;58632;51.718;19.446;2022-08-01T05:25:48;4.53;;;2.55;;
70970;SDS011;58632;51.718;19.446;2022-08-01T05:28:16;3.58;;;2.40;;
70970;SDS011;58632;51.718;19.446;2022-08-01T05:30:43;3.37;;;2.25;;
70970;SDS011;58632;51.718;19.446;2022-08-01T05:33:10;4.20;;;2.45;;
70970;SDS011;58632;51.718;19.446;2022-08-01T05:35:38;4.30;;;2.52;;
70970;SDS011;58632;51.718;19.446;2022-08-01T05:38:05;4.70;;;2.62;;
70970;SDS011;58632;51.718;19.446;2022-08-01T05:40:32;2.87;;;2.20;;
70970;SDS011;58632;51.718;19.446;2022-08-01T05:42:59;4.12;;;1.90;;
70970;SDS011;58632;51.718;19.446;2022-08-01T05:45:27;2.75;;;1.98;;
70970;SDS011;58632;51.718;19.446;2022-08-01T05:47:54;4.95;;;2.10;;
70970;SDS011;58632;51.718;19.446;2022-08-01T05:50:21;4.95;;;2.08;;
70970;SDS011;58632;51.718;19.446;2022-08-01T05:52:49;5.55;;;1.92;;
70970;SDS011;58632;51.718;19.446;2022-08-01T05:55:16;4.22;;;2.30;;
70970;SDS011;58632;51.718;19.446;2022-08-01T05:57:44;5.30;;;2.00;;
70970;SDS011;58632;51.718;19.446;2022-08-01T06:00:11;4.70;;;2.00;;
70970;SDS011;58632;51.718;19.446;2022-08-01T06:02:41;5.37;;;2.00;;
70970;SDS011;58632;51.718;19.446;2022-08-01T06:05:09;4.47;;;1.80;;
70970;SDS011;58632;51.718;19.446;2022-08-01T06:07:38;4.62;;;1.80;;
70970;SDS011;58632;51.718;19.446;2022-08-01T06:10:06;8.40;;;1.70;;
70970;SDS011;58632;51.718;19.446;2022-08-01T06:12:35;4.17;;;1.80;;
70970;SDS011;58632;51.718;19.446;2022-08-01T06:15:04;3.08;;;2.00;;
70970;SDS011;58632;51.718;19.446;2022-08-01T06:17:32;2.15;;;1.47;;
70970;SDS011;58632;51.718;19.446;2022-08-01T06:19:59;2.83;;;1.65;;
70970;SDS011;58632;51.718;19.446;2022-08-01T06:22:27;4.42;;;1.90;;
70970;SDS011;58632;51.718;19.446;2022-08-01T06:24:54;3.50;;;1.62;;
70970;SDS011;58632;51.718;19.446;2022-08-01T06:27:22;4.40;;;1.70;;
70970;SDS011;58632;51.718;19.446;2022-08-01T06:29:51;7.17;;;1.92;;
70970;SDS011;58632;51.718;19.446;2022-08-01T06:32:24;3.55;;;2.00;;
70970;SDS011;58632;51.718;19.446;2022-08-01T06:34:49;6.12;;;2.08;;
70970;SDS011;58632;51.718;19.446;2022-08-01T06:37:16;4.53;;;1.95;;
70970;SDS011;58632;51.718;19.446;2022-08-01T06:39:43;4.58;;;1.98;;
70970;SDS011;58632;51.718;19.446;2022-08-01T06:42:10;5.17;;;2.00;;
70970;SDS011;58632;51.718;19.446;2022-08-01T06:44:40;5.83;;;2.47;;
70970;SDS011;58632;51.718;19.446;2022-08-01T06:47:08;6.55;;;2.20;;
70970;SDS011;58632;51.718;19.446;2022-08-01T06:49:35;6.47;;;2.20;;
70970;SDS011;58632;51.718;19.446;2022-08-01T06:52:03;5.47;;;2.20;;
70970;SDS011;58632;51.718;19.446;2022-08-01T06:54:30;4.87;;;2.30;;
70970;SDS011;58632;51.718;19.446;2022-08-01T06:56:58;3.37;;;1.92;;
70970;SDS011;58632;51.718;19.446;2022-08-01T06:59:25;4.40;;;2.55;;
70970;SDS011;58632;51.718;19.446;2022-08-01T07:01:53;7.83;;;2.42;;
70970;SDS011;58632;51.718;19.446;2022-08-01T07:04:20;5.20;;;2.50;;
70970;SDS011;58632;51.718;19.446;2022-08-01T07:06:47;6.17;;;2.10;;
70970;SDS011;58632;51.718;19.446;2022-08-01T07:09:14;4.75;;;2.22;;
70970;SDS011;58632;51.718;19.446;2022-08-01T07:11:42;5.83;;;2.20;;
70970;SDS011;58632;51.718;19.446;2022-08-01T07:14:11;4.80;;;2.45;;
70970;SDS011;58632;51.718;19.446;2022-08-01T07:16:38;3.60;;;2.12;;
70970;SDS011;58632;51.718;19.446;2022-08-01T07:19:08;5.50;;;2.33;;
70970;SDS011;58632;51.718;19.446;2022-08-01T07:21:35;4.33;;;2.30;;
70970;SDS011;58632;51.718;19.446;2022-08-01T07:24:02;4.05;;;2.25;;
70970;SDS011;58632;51.718;19.446;2022-08-01T07:26:30;4.12;;;2.40;;
70970;SDS011;58632;51.718;19.446;2022-08-01T07:28:58;3.25;;;2.10;;
70970;SDS011;58632;51.718;19.446;2022-08-01T07:31:25;3.60;;;2.27;;
70970;SDS011;58632;51.718;19.446;2022-08-01T07:33:53;4.78;;;2.20;;
70970;SDS011;58632;51.718;19.446;2022-08-01T07:36:20;4.30;;;2.47;;
70970;SDS011;58632;51.718;19.446;2022-08-01T07:38:48;4.65;;;2.10;;
70970;SDS011;58632;51.718;19.446;2022-08-01T07:41:15;4.60;;;2.45;;
70970;SDS011;58632;51.718;19.446;2022-08-01T07:43:43;5.80;;;2.60;;
70970;SDS011;58632;51.718;19.446;2022-08-01T07:46:10;4.92;;;2.45;;
70970;SDS011;58632;51.718;19.446;2022-08-01T07:48:38;6.33;;;2.47;;
70970;SDS011;58632;51.718;19.446;2022-08-01T07:51:05;3.47;;;1.90;;
70970;SDS011;58632;51.718;19.446;2022-08-01T07:53:32;5.15;;;2.42;;
70970;SDS011;58632;51.718;19.446;2022-08-01T07:55:59;4.78;;;2.00;;
70970;SDS011;58632;51.718;19.446;2022-08-01T07:58:28;4.25;;;2.00;;
70970;SDS011;58632;51.718;19.446;2022-08-01T08:00:56;4.67;;;2.02;;
70970;SDS011;58632;51.718;19.446;2022-08-01T08:03:23;4.97;;;1.80;;
70970;SDS011;58632;51.718;19.446;2022-08-01T08:05:51;6.17;;;2.25;;
70970;SDS011;58632;51.718;19.446;2022-08-01T08:08:18;4.25;;;2.10;;
70970;SDS011;58632;51.718;19.446;2022-08-01T08:10:46;4.50;;;1.75;;
70970;SDS011;58632;51.718;19.446;2022-08-01T08:13:13;4.45;;;2.00;;
70970;SDS011;58632;51.718;19.446;2022-08-01T08:15:40;5.90;;;2.30;;
70970;SDS011;58632;51.718;19.446;2022-08-01T08:18:07;6.33;;;2.22;;
70970;SDS011;58632;51.718;19.446;2022-08-01T08:20:34;3.75;;;1.70;;
70970;SDS011;58632;51.718;19.446;2022-08-01T08:23:02;4.40;;;1.87;;
70970;SDS011;58632;51.718;19.446;2022-08-01T08:25:31;2.90;;;1.98;;
70970;SDS011;58632;51.718;19.446;2022-08-01T08:28:00;4.22;;;2.10;;
70970;SDS011;58632;51.718;19.446;2022-08-01T08:30:27;2.62;;;2.05;;
70970;SDS011;58632;51.718;19.446;2022-08-01T08:32:54;5.30;;;1.85;;
70970;SDS011;58632;51.718;19.446;2022-08-01T08:35:23;5.10;;;1.80;;
70970;SDS011;58632;51.718;19.446;2022-08-01T08:37:51;2.95;;;1.80;;
70970;SDS011;58632;51.718;19.446;2022-08-01T08:40:18;2.95;;;1.80;;
70970;SDS011;58632;51.718;19.446;2022-08-01T08:42:49;4.50;;;1.87;;
70970;SDS011;58632;51.718;19.446;2022-08-01T08:45:18;3.33;;;1.70;;
70970;SDS011;58632;51.718;19.446;2022-08-01T08:47:46;3.12;;;1.60;;
70970;SDS011;58632;51.718;19.446;2022-08-01T08:50:16;4.67;;;1.70;;
70970;SDS011;58632;51.718;19.446;2022-08-01T08:52:44;3.80;;;1.65;;
70970;SDS011;58632;51.718;19.446;2022-08-01T08:55:15;5.87;;;1.90;;
70970;SDS011;58632;51.718;19.446;2022-08-01T08:57:44;4.12;;;1.40;;
70970;SDS011;58632;51.718;19.446;2022-08-01T09:00:12;2.70;;;1.60;;
70970;SDS011;58632;51.718;19.446;2022-08-01T09:02:42;3.75;;;1.42;;
70970;SDS011;58632;51.718;19.446;2022-08-01T09:05:12;3.67;;;1.42;;
70970;SDS011;58632;51.718;19.446;2022-08-01T09:07:40;3.98;;;1.60;;
70970;SDS011;58632;51.718;19.446;2022-08-01T09:10:08;4.58;;;1.70;;
70970;SDS011;58632;51.718;19.446;2022-08-01T09:12:36;3.95;;;1.52;;
70970;SDS011;58632;51.718;19.446;2022-08-01T09:15:04;3.20;;;1.57;;
70970;SDS011;58632;51.718;19.446;2022-08-01T09:17:40;3.47;;;1.40;;
70970;SDS011;58632;51.718;19.446;2022-08-01T09:20:08;6.30;;;1.90;;
70970;SDS011;58632;51.718;19.446;2022-08-01T09:22:41;4.37;;;1.50;;
70970;SDS011;58632;51.718;19.446;2022-08-01T09:25:09;2.62;;;1.67;;
70970;SDS011;58632;51.718;19.446;2022-08-01T09:27:37;4.90;;;1.40;;
70970;SDS011;58632;51.718;19.446;2022-08-01T09:30:16;5.20;;;1.57;;
70970;SDS011;58632;51.718;19.446;2022-08-01T09:35:28;2.85;;;1.42;;
70970;SDS011;58632;51.718;19.446;2022-08-01T09:43:24;2.22;;;1.55;;
70970;SDS011;58632;51.718;19.446;2022-08-01T09:45:54;2.25;;;1.40;;
70970;SDS011;58632;51.718;19.446;2022-08-01T09:48:23;2.45;;;1.40;;
70970;SDS011;58632;51.718;19.446;2022-08-01T09:50:51;5.85;;;1.42;;
70970;SDS011;58632;51.718;19.446;2022-08-01T09:53:19;2.47;;;1.42;;
70970;SDS011;58632;51.718;19.446;2022-08-01T09:55:47;4.30;;;1.50;;
70970;SDS011;58632;51.718;19.446;2022-08-01T09:58:16;1.85;;;1.27;;
70970;SDS011;58632;51.718;19.446;2022-08-01T10:00:43;4.50;;;1.32;;
70970;SDS011;58632;51.718;19.446;2022-08-01T10:03:23;3.22;;;1.52;;
70970;SDS011;58632;51.718;19.446;2022-08-01T10:05:52;2.35;;;1.55;;
70970;SDS011;58632;51.718;19.446;2022-08-01T10:08:20;3.00;;;1.60;;
70970;SDS011;58632;51.718;19.446;2022-08-01T10:11:04;5.22;;;1.60;;
70970;SDS011;58632;51.718;19.446;2022-08-01T10:13:36;3.58;;;1.80;;
70970;SDS011;58632;51.718;19.446;2022-08-01T10:16:04;3.20;;;1.50;;
70970;SDS011;58632;51.718;19.446;2022-08-01T10:18:33;2.80;;;1.75;;
70970;SDS011;58632;51.718;19.446;2022-08-01T10:21:03;3.55;;;1.52;;
70970;SDS011;58632;51.718;19.446;2022-08-01T10:23:36;5.12;;;1.72;;
70970;SDS011;58632;51.718;19.446;2022-08-01T10:26:02;5.85;;;1.60;;
70970;SDS011;58632;51.718;19.446;2022-08-01T10:28:32;3.20;;;1.50;;
70970;SDS011;58632;51.718;19.446;2022-08-01T10:31:03;2.85;;;1.52;;
70970;SDS011;58632;51.718;19.446;2022-08-01T10:33:30;4.37;;;1.60;;
70970;SDS011;58632;51.718;19.446;2022-08-01T10:36:00;5.05;;;1.62;;
70970;SDS011;58632;51.718;19.446;2022-08-01T10:38:27;2.47;;;1.70;;
70970;SDS011;58632;51.718;19.446;2022-08-01T10:40:55;6.72;;;1.70;;
70970;SDS011;58632;51.718;19.446;2022-08-01T10:43:27;3.10;;;1.80;;
70970;SDS011;58632;51.718;19.446;2022-08-01T10:45:56;3.47;;;1.95;;
70970;SDS011;58632;51.718;19.446;2022-08-01T10:48:41;7.12;;;2.62;;
70970;SDS011;58632;51.718;19.446;2022-08-01T10:51:19;4.43;;;2.27;;
70970;SDS011;58632;51.718;19.446;2022-08-01T10:53:50;2.77;;;1.72;;
70970;SDS011;58632;51.718;19.446;2022-08-01T10:56:19;2.98;;;1.67;;
70970;SDS011;58632;51.718;19.446;2022-08-01T10:58:51;6.03;;;2.00;;
70970;SDS011;58632;51.718;19.446;2022-08-01T11:01:30;4.00;;;1.70;;
70970;SDS011;58632;51.718;19.446;2022-08-01T11:06:39;2.47;;;1.87;;
70970;SDS011;58632;51.718;19.446;2022-08-01T11:09:25;3.95;;;1.90;;
70970;SDS011;58632;51.718;19.446;2022-08-01T11:12:03;6.03;;;1.90;;
70970;SDS011;58632;51.718;19.446;2022-08-01T11:15:19;3.45;;;1.70;;
70970;SDS011;58632;51.718;19.446;2022-08-01T11:17:34;4.83;;;1.92;;
70970;SDS011;58632;51.718;19.446;2022-08-01T11:20:11;9.08;;;2.12;;
70970;SDS011;58632;51.718;19.446;2022-08-01T11:39:09;6.47;;;2.02;;
70970;SDS011;58632;51.718;19.446;2022-08-01T11:41:29;3.87;;;1.90;;
70970;SDS011;58632;51.718;19.446;2022-08-01T11:44:02;4.22;;;2.00;;
70970;SDS011;58632;51.718;19.446;2022-08-01T11:52:16;8.23;;;2.62;;
70970;SDS011;58632;51.718;19.446;2022-08-01T11:54:50;3.27;;;1.92;;
70970;SDS011;58632;51.718;19.446;2022-08-01T11:57:22;5.37;;;2.37;;
70970;SDS011;58632;51.718;19.446;2022-08-01T11:59:57;6.05;;;2.10;;
70970;SDS011;58632;51.718;19.446;2022-08-01T12:02:27;4.22;;;2.33;;
70970;SDS011;58632;51.718;19.446;2022-08-01T12:05:00;2.47;;;1.77;;
70970;SDS011;58632;51.718;19.446;2022-08-01T12:07:32;5.45;;;1.95;;
70970;SDS011;58632;51.718;19.446;2022-08-01T12:10:05;5.50;;;1.95;;
70970;SDS011;58632;51.718;19.446;2022-08-01T12:12:35;2.37;;;1.62;;
70970;SDS011;58632;51.718;19.446;2022-08-01T12:15:07;6.10;;;2.25;;
70970;SDS011;58632;51.718;19.446;2022-08-01T12:17:42;2.90;;;1.62;;
70970;SDS011;58632;51.718;19.446;2022-08-01T12:20:15;3.45;;;1.90;;
70970;SDS011;58632;51.718;19.446;2022-08-01T12:22:55;22.15;;;3.70;;
70970;SDS011;58632;51.718;19.446;2022-08-01T12:25:24;4.87;;;2.00;;
70970;SDS011;58632;51.718;19.446;2022-08-01T12:27:51;4.30;;;2.15;;
70970;SDS011;58632;51.718;19.446;2022-08-01T12:30:20;4.35;;;2.17;;
70970;SDS011;58632;51.718;19.446;2022-08-01T12:32:50;8.38;;;2.70;;
70970;SDS011;58632;51.718;19.446;2022-08-01T12:37:52;3.80;;;1.80;;
70970;SDS011;58632;51.718;19.446;2022-08-01T12:40:27;3.70;;;1.80;;
70970;SDS011;58632;51.718;19.446;2022-08-01T12:42:59;3.37;;;2.10;;
70970;SDS011;58632;51.718;19.446;2022-08-01T12:45:40;3.58;;;2.40;;
70970;SDS011;58632;51.718;19.446;2022-08-01T12:48:13;4.90;;;1.92;;
70970;SDS011;58632;51.718;19.446;2022-08-01T12:50:43;4.58;;;2.08;;
70970;SDS011;58632;51.718;19.446;2022-08-01T12:53:14;3.67;;;1.90;;
70970;SDS011;58632;51.718;19.446;2022-08-01T12:58:19;3.30;;;2.12;;
70970;SDS011;58632;51.718;19.446;2022-08-01T13:00:49;4.00;;;1.80;;
70970;SDS011;58632;51.718;19.446;2022-08-01T13:03:20;4.00;;;1.87;;
70970;SDS011;58632;51.718;19.446;2022-08-01T13:08:29;4.35;;;1.87;;
70970;SDS011;58632;51.718;19.446;2022-08-01T13:11:05;4.03;;;2.00;;
70970;SDS011;58632;51.718;19.446;2022-08-01T13:13:50;3.35;;;1.82;;
70970;SDS011;58632;51.718;19.446;2022-08-01T13:16:20;4.80;;;1.87;;
70970;SDS011;58632;51.718;19.446;2022-08-01T13:18:52;2.30;;;1.70;;
70970;SDS011;58632;51.718;19.446;2022-08-01T13:21:23;3.10;;;1.98;;
70970;SDS011;58632;51.718;19.446;2022-08-01T13:24:11;5.87;;;2.00;;
70970;SDS011;58632;51.718;19.446;2022-08-01T13:26:45;5.45;;;1.67;;
70970;SDS011;58632;51.718;19.446;2022-08-01T13:31:46;3.20;;;1.80;;
70970;SDS011;58632;51.718;19.446;2022-08-01T13:34:14;2.75;;;1.87;;
70970;SDS011;58632;51.718;19.446;2022-08-01T13:36:42;4.85;;;2.00;;
70970;SDS011;58632;51.718;19.446;2022-08-01T13:39:09;2.67;;;1.85;;
70970;SDS011;58632;51.718;19.446;2022-08-01T13:41:55;3.85;;;1.98;;
70970;SDS011;58632;51.718;19.446;2022-08-01T13:44:22;2.65;;;1.70;;
70970;SDS011;58632;51.718;19.446;2022-08-01T13:46:51;4.08;;;2.00;;
70970;SDS011;58632;51.718;19.446;2022-08-01T13:49:18;4.97;;;1.92;;
70970;SDS011;58632;51.718;19.446;2022-08-01T13:51:45;5.97;;;2.00;;
70970;SDS011;58632;51.718;19.446;2022-08-01T13:54:16;5.95;;;2.05;;
70970;SDS011;58632;51.718;19.446;2022-08-01T13:56:44;3.15;;;2.00;;
70970;SDS011;58632;51.718;19.446;2022-08-01T13:59:12;4.12;;;2.08;;
70970;SDS011;58632;51.718;19.446;2022-08-01T14:01:40;5.70;;;1.62;;
70970;SDS011;58632;51.718;19.446;2022-08-01T14:04:08;2.27;;;1.60;;
70970;SDS011;58632;51.718;19.446;2022-08-01T14:06:35;2.40;;;1.37;;
70970;SDS011;58632;51.718;19.446;2022-08-01T14:09:03;2.70;;;1.75;;
70970;SDS011;58632;51.718;19.446;2022-08-01T14:11:32;3.85;;;1.87;;
70970;SDS011;58632;51.718;19.446;2022-08-01T14:13:59;2.83;;;1.50;;
70970;SDS011;58632;51.718;19.446;2022-08-01T14:16:26;4.70;;;1.70;;
70970;SDS011;58632;51.718;19.446;2022-08-01T14:18:55;3.40;;;1.50;;
70970;SDS011;58632;51.718;19.446;2022-08-01T14:21:22;7.58;;;1.92;;
70970;SDS011;58632;51.718;19.446;2022-08-01T14:23:49;3.45;;;1.75;;
70970;SDS011;58632;51.718;19.446;2022-08-01T14:26:17;4.03;;;1.70;;
70970;SDS011;58632;51.718;19.446;2022-08-01T14:28:45;2.80;;;1.62;;
70970;SDS011;58632;51.718;19.446;2022-08-01T14:31:13;2.17;;;1.50;;
70970;SDS011;58632;51.718;19.446;2022-08-01T14:33:40;3.77;;;1.92;;
70970;SDS011;58632;51.718;19.446;2022-08-01T14:36:07;4.20;;;1.80;;
70970;SDS011;58632;51.718;19.446;2022-08-01T14:38:34;4.65;;;2.00;;
70970;SDS011;58632;51.718;19.446;2022-08-01T14:41:02;5.65;;;2.10;;
70970;SDS011;58632;51.718;19.446;2022-08-01T14:43:29;2.83;;;1.80;;
70970;SDS011;58632;51.718;19.446;2022-08-01T14:45:59;3.60;;;2.30;;
70970;SDS011;58632;51.718;19.446;2022-08-01T14:48:29;3.37;;;2.10;;
70970;SDS011;58632;51.718;19.446;2022-08-01T14:50:57;6.22;;;2.22;;
70970;SDS011;58632;51.718;19.446;2022-08-01T14:53:26;4.45;;;2.30;;
70970;SDS011;58632;51.718;19.446;2022-08-01T14:55:54;5.35;;;2.40;;
70970;SDS011;58632;51.718;19.446;2022-08-01T14:58:21;3.65;;;2.00;;
70970;SDS011;58632;51.718;19.446;2022-08-01T15:00:49;3.45;;;2.30;;
70970;SDS011;58632;51.718;19.446;2022-08-01T15:03:18;4.37;;;2.27;;
70970;SDS011;58632;51.718;19.446;2022-08-01T15:05:46;3.05;;;2.33;;
70970;SDS011;58632;51.718;19.446;2022-08-01T15:08:13;4.40;;;1.90;;
70970;SDS011;58632;51.718;19.446;2022-08-01T15:10:41;6.20;;;2.30;;
70970;SDS011;58632;51.718;19.446;2022-08-01T15:13:08;5.03;;;2.37;;
70970;SDS011;58632;51.718;19.446;2022-08-01T15:15:35;4.62;;;2.40;;
70970;SDS011;58632;51.718;19.446;2022-08-01T15:18:03;6.20;;;2.35;;
70970;SDS011;58632;51.718;19.446;2022-08-01T15:20:31;3.40;;;2.20;;
70970;SDS011;58632;51.718;19.446;2022-08-01T15:22:59;4.25;;;2.37;;
70970;SDS011;58632;51.718;19.446;2022-08-01T15:25:27;6.00;;;2.85;;
70970;SDS011;58632;51.718;19.446;2022-08-01T15:27:55;6.30;;;2.47;;
70970;SDS011;58632;51.718;19.446;2022-08-01T15:30:23;5.87;;;2.45;;
70970;SDS011;58632;51.718;19.446;2022-08-01T15:32:50;3.80;;;2.45;;
70970;SDS011;58632;51.718;19.446;2022-08-01T15:35:18;6.78;;;2.37;;
70970;SDS011;58632;51.718;19.446;2022-08-01T15:37:45;2.95;;;2.60;;
70970;SDS011;58632;51.718;19.446;2022-08-01T15:40:13;3.62;;;2.45;;
70970;SDS011;58632;51.718;19.446;2022-08-01T15:42:40;5.22;;;2.47;;
70970;SDS011;58632;51.718;19.446;2022-08-01T15:45:07;4.70;;;2.40;;
70970;SDS011;58632;51.718;19.446;2022-08-01T15:47:36;3.20;;;2.17;;